Time;durP1;ratioP1;P1;durP2;ratioP2;P2;SDS_P1;SDS_P2;PMS_P1;PMS_P2;Temp;Humidity;BMP_temperature;BMP_pressure;BME280_temperature;BME280_humidity;BME280_pressure;Samples;Min_cycle;Max_cycle;Signal;HPM_P1;HPM_P2
2023/03/30 00:08:27;;;;;;;;;;;;;;;;;;;;;
2023/03/30 00:14:26;;;;;;;;;;;;;;;;;;;;;
2023/03/30 00:16:41;;;;;;;;;;;;;;;;;;;;;
2023/03/30 00:30:14;;;;;;;13.95;6.10;;;;;;;;;;1963392;30;20056;-81
2023/03/30 00:32:39;;;;;;;;;;;;;;;;;;;;;
2023/03/30 00:45:01;;;;;;;19.65;7.07;;;;;;;;;;1956950;30;20049;-80
2023/03/30 00:47:01;;;;;;;;;;;;;;;;;;;;;
2023/03/30 01:09:18;;;;;;;10.10;5.93;;;;;;;;;;1958184;29;20044;-80
2023/03/30 01:10:56;;;;;;;23.23;8.10;;;;;;;;;;1954446;30;20463;-81
2023/03/30 01:12:45;;;;;;;10.68;5.75;;;;;;;;;;1954839;30;20028;-81
2023/03/30 01:14:39;;;;;;;8.50;5.53;;;;;;;;;;1961839;30;20040;-82
2023/03/30 01:16:38;;;;;;;;;;;;;;;;;;;;;
2023/03/30 01:18:29;;;;;;;8.43;5.57;;;;;;;;;;1978542;29;20043;-81
2023/03/30 01:20:22;;;;;;;14.13;7.25;;;;;;;;;;1983919;29;20284;-82
2023/03/30 01:36:06;;;;;;;;;;;;;;;;;;;;;
2023/03/30 01:37:47;;;;;;;;;;;;;;;;;;2005072;29;20379;-80
2023/03/30 01:42:09;;;;;;;11.15;5.88;;;;;;;;;;1995601;29;20039;-81
2023/03/30 01:52:41;;;;;;;13.85;6.18;;;;;;;;;;2000905;29;20509;-73
2023/03/30 01:54:47;;;;;;;;;;;;;;;;;;;;;
2023/03/30 01:56:59;;;;;;;;;;;;;;;;;;;;;
2023/03/30 01:58:46;;;;;;;7.78;5.05;;;;;;;;;;2065298;28;20218;-72
2023/03/30 02:00:49;;;;;;;;;;;;;;;;;;;;;
2023/03/30 02:02:15;;;;;;;;;;;;;;;;;;2055215;28;20526;-72
2023/03/30 02:04:01;;;;;;;13.38;5.90;;;;;;;;;;2062665;28;19921;-72
2023/03/30 02:11:51;;;;;;;;;;;;;;;;;;;;;
2023/03/30 02:13:33;;;;;;;10.45;5.00;;;;;;;;;;2045857;28;20035;-72
2023/03/30 02:15:20;;;;;;;;;;;;;;;;;;;;;
2023/03/30 02:17:16;;;;;;;12.82;6.03;;;;;;;;;;2053194;28;20034;-72
2023/03/30 02:23:31;;;;;;;;;;;;;;;;;;;;;
2023/03/30 02:31:08;;;;;;;12.57;6.13;;;;;;;;;;2039987;29;20028;-72
2023/03/30 02:34:52;;;;;;;12.18;5.65;;;;;;;;;;2035072;29;20048;-73
2023/03/30 02:41:12;;;;;;;;;;;;;;;;;;;;;
2023/03/30 02:42:58;;;;;;;;;;;;;;;;;;;;;
2023/03/30 02:53:27;;;;;;;14.35;6.05;;;;;;;;;;1994278;29;20471;-73
2023/03/30 02:55:18;;;;;;;12.07;4.97;;;;;;;;;;1994260;29;20514;-72
2023/03/30 03:01:39;;;;;;;10.20;5.20;;;;;;;;;;2032445;29;20552;-76
2023/03/30 03:03:20;;;;;;;16.58;6.93;;;;;;;;;;2019131;29;20043;-77
2023/03/30 03:09:14;;;;;;;12.55;5.28;;;;;;;;;;2032043;29;20051;-75
2023/03/30 03:11:06;;;;;;;11.73;5.30;;;;;;;;;;2023930;29;20032;-76
2023/03/30 03:12:54;;;;;;;11.07;4.93;;;;;;;;;;2036448;28;20042;-77
2023/03/30 03:14:50;;;;;;;15.70;6.88;;;;;;;;;;2066549;28;20429;-76
2023/03/30 03:16:27;;;;;;;;;;;;;;;;;;;;;
2023/03/30 03:18:35;;;;;;;;;;;;;;;;;;;;;
2023/03/30 03:22:37;;;;;;;11.13;4.97;;;;;;;;;;2050536;28;20331;-76
2023/03/30 03:24:07;;;;;;;31.42;10.77;;;;;;;;;;2030769;28;20828;-76
2023/03/30 03:25:56;;;;;;;10.68;6.03;;;;;;;;;;2032742;29;20103;-77
2023/03/30 03:29:49;;;;;;;10.85;5.63;;;;;;;;;;2043682;28;20086;-76
2023/03/30 03:31:14;;;;;;;11.93;5.32;;;;;;;;;;2064032;28;20033;-77
2023/03/30 03:33:20;;;;;;;;;;;;;;;;;;;;;
2023/03/30 03:34:52;;;;;;;18.35;7.13;;;;;;;;;;2032830;28;20047;-77
2023/03/30 03:43:04;;;;;;;10.25;5.20;;;;;;;;;;2038739;29;20047;-76
2023/03/30 03:44:41;;;;;;;43.10;11.82;;;;;;;;;;2012176;29;20494;-76
2023/03/30 03:46:24;;;;;;;;;;;;;;;;;;;;;
2023/03/30 03:48:13;;;;;;;14.00;6.45;;;;;;;;;;2040282;29;20035;-76
2023/03/30 03:52:14;;;;;;;11.73;5.38;;;;;;;;;;2024524;29;20044;-76
2023/03/30 04:02:50;;;;;;;9.05;5.20;;;;;;;;;;2021850;29;20024;-76
2023/03/30 04:04:43;;;;;;;;;;;;;;;;;;;;;
2023/03/30 04:06:28;;;;;;;8.70;4.78;;;;;;;;;;2050268;28;20075;-77
2023/03/30 04:09:01;;;;;;;;;;;;;;;;;;;;;
2023/03/30 04:10:06;;;;;;;10.50;5.17;;;;;;;;;;2035298;28;20046;-76
2023/03/30 04:15:54;;;;;;;16.05;5.97;;;;;;;;;;2033990;28;20047;-77
2023/03/30 04:17:36;;;;;;;;;;;;;;;;;;;;;
2023/03/30 04:19:06;;;;;;;;;;;;;;;;;;2058212;28;20031;-77
2023/03/30 04:21:08;;;;;;;;;;;;;;;;;;;;;
2023/03/30 04:22:35;;;;;;;13.30;5.97;;;;;;;;;;2061149;28;20390;-76
2023/03/30 04:24:28;;;;;;;9.15;5.20;;;;;;;;;;2051907;28;20042;-76
2023/03/30 04:28:23;;;;;;;11.60;6.50;;;;;;;;;;2057617;28;20031;-77
2023/03/30 04:29:58;;;;;;;17.90;7.35;;;;;;;;;;2033981;28;20032;-77
2023/03/30 04:33:44;;;;;;;16.35;6.80;;;;;;;;;;2049004;28;20031;-76
2023/03/30 04:35:33;;;;;;;10.10;5.15;;;;;;;;;;2050588;28;20039;-76
2023/03/30 04:37:06;;;;;;;10.73;5.47;;;;;;;;;;2055305;28;20534;-77
2023/03/30 04:38:59;;;;;;;14.48;6.03;;;;;;;;;;2056282;28;20031;-77
2023/03/30 04:42:48;;;;;;;9.82;5.30;;;;;;;;;;2038548;28;20437;-77
2023/03/30 04:44:19;;;;;;;11.30;4.63;;;;;;;;;;2063907;28;20023;-77
2023/03/30 04:46:13;;;;;;;70.68;21.90;;;;;;;;;;2050800;28;20037;-77
2023/03/30 04:50:02;;;;;;;11.88;5.85;;;;;;;;;;2057741;28;20053;-76
2023/03/30 04:51:54;;;;;;;;;;;;;;;;;;;;;
2023/03/30 04:54:03;;;;;;;;;;;;;;;;;;;;;
2023/03/30 04:57:56;;;;;;;7.70;4.82;;;;;;;;;;2046935;28;20055;-76
2023/03/30 05:01:49;;;;;;;9.60;5.20;;;;;;;;;;2053238;28;20064;-76
2023/03/30 05:05:36;;;;;;;12.85;5.65;;;;;;;;;;2058982;28;19906;-77
2023/03/30 05:09:36;;;;;;;11.55;5.65;;;;;;;;;;2050026;28;20078;-77
2023/03/30 05:41:21;;;;;;;13.50;6.00;;;;;;;;;;2012964;29;20026;-74
2023/03/30 05:49:55;;;;;;;;;;;;;;;;;;;;;
2023/03/30 05:54:14;;;;;;;;;;;;;;;;;;;;;
2023/03/30 06:05:00;;;;;;;14.23;6.20;;;;;;;;;;2000796;29;20401;-73
2023/03/30 06:11:01;;;;;;;14.52;6.60;;;;;;;;;;1984448;29;20427;-73
2023/03/30 06:12:38;;;;;;;;;;;;;;;;;;;;;
2023/03/30 06:14:29;;;;;;;;;;;;;;;;;;;;;
2023/03/30 06:16:47;;;;;;;;;;;;;;;;;;;;;
2023/03/30 06:18:51;;;;;;;14.55;6.20;;;;;;;;;;1998697;29;20049;-79
2023/03/30 06:29:54;;;;;;;16.85;6.03;;;;;;;;;;2008634;29;20080;-80
2023/03/30 06:35:16;;;;;;;26.80;7.88;;;;;;;;;;2024584;29;20036;-79
2023/03/30 06:36:42;;;;;;;19.30;6.68;;;;;;;;;;2013865;29;20033;-78
2023/03/30 06:38:06;;;;;;;16.95;7.10;;;;;;;;;;1992085;29;20046;-78
2023/03/30 06:39:36;;;;;;;13.02;6.47;;;;;;;;;;2014969;29;20060;-79
2023/03/30 06:41:05;;;;;;;9.02;5.63;;;;;;;;;;2007013;29;20045;-79
2023/03/30 06:42:27;;;;;;;24.73;8.65;;;;;;;;;;2005012;29;20071;-82
2023/03/30 06:43:51;;;;;;;20.13;7.70;;;;;;;;;;2004500;29;20049;-81
2023/03/30 06:45:17;;;;;;;12.88;5.18;;;;;;;;;;2015662;29;20440;-80
2023/03/30 06:46:38;;;;;;;15.13;5.78;;;;;;;;;;2013965;29;20035;-79
2023/03/30 06:52:34;;;;;;;14.15;6.43;;;;;;;;;;2045449;29;20036;-81
2023/03/30 06:54:08;;;;;;;;;;;;;;;;;;;;;
2023/03/30 06:58:04;;;;;;;14.32;5.88;;;;;;;;;;2010227;29;20052;-79
2023/03/30 06:59:36;;;;;;;13.77;6.43;;;;;;;;;;2012437;29;20037;-79
2023/03/30 07:01:23;;;;;;;18.40;6.13;;;;;;;;;;1998851;29;20399;-79
2023/03/30 07:03:28;;;;;;;16.80;6.43;;;;;;;;;;1998116;29;20034;-79
2023/03/30 07:05:15;;;;;;;;;;;;;;;;;;;;;
2023/03/30 07:13:32;;;;;;;;;;;;;;;;;;;;;
2023/03/30 07:43:49;;;;;;;;;;;;;;;;;;;;;
2023/03/30 07:51:58;;;;;;;17.50;5.97;;;;;;;;;;1961299;30;20044;-79
2023/03/30 08:00:13;;;;;;;35.83;11.63;;;;;;;;;;1944044;30;20467;-77
2023/03/30 09:02:37;;;;;;;14.38;4.28;;;;;;;;;;506792;23;20434;-94
2023/03/30 09:03:58;;;;;;;18.63;6.30;;;;;;;;;;2047505;28;20039;-94
2023/03/30 09:05:25;;;;;;;14.00;6.38;;;;;;;;;;2048916;28;20561;-95
2023/03/30 09:06:50;;;;;;;15.10;4.85;;;;;;;;;;2049500;28;20039;-93
2023/03/30 09:08:30;;;;;;;21.92;5.78;;;;;;;;;;2049106;29;20039;-93
2023/03/30 09:09:58;;;;;;;22.35;6.80;;;;;;;;;;2049061;28;20269;-94
2023/03/30 09:11:28;;;;;;;10.35;5.15;;;;;;;;;;2062328;28;20023;-92
2023/03/30 09:12:55;;;;;;;21.83;6.70;;;;;;;;;;2044571;28;20028;-94
2023/03/30 09:14:25;;;;;;;17.50;5.90;;;;;;;;;;2047061;28;20094;-93
2023/03/30 09:15:58;;;;;;;17.63;5.30;;;;;;;;;;2044153;28;20067;-94
2023/03/30 09:17:22;;;;;;;18.75;5.43;;;;;;;;;;2047966;29;20134;-94
2023/03/30 09:18:46;;;;;;;14.80;5.97;;;;;;;;;;2048674;29;20036;-92
2023/03/30 09:20:15;;;;;;;33.17;10.45;;;;;;;;;;2048836;28;20028;-93
2023/03/30 09:21:39;;;;;;;17.27;5.47;;;;;;;;;;2050585;28;20034;-94
2023/03/30 09:23:00;;;;;;;17.83;6.05;;;;;;;;;;2055049;28;20030;-94
2023/03/30 09:24:25;;;;;;;14.63;5.28;;;;;;;;;;2049276;28;20035;-94
2023/03/30 09:25:46;;;;;;;21.50;6.93;;;;;;;;;;2054370;28;20027;-94
2023/03/30 09:27:30;;;;;;;19.33;6.55;;;;;;;;;;2049783;28;20046;-94
2023/03/30 09:28:56;;;;;;;22.02;6.78;;;;;;;;;;2057546;28;20037;-93
2023/03/30 09:30:19;;;;;;;19.48;6.18;;;;;;;;;;2036289;28;20043;-94
2023/03/30 09:31:43;;;;;;;13.02;5.60;;;;;;;;;;2049400;28;20042;-93
2023/03/30 09:33:18;;;;;;;17.70;6.05;;;;;;;;;;2041741;29;20060;-94
2023/03/30 09:34:46;;;;;;;19.02;6.32;;;;;;;;;;2048430;28;20039;-92
2023/03/30 09:36:07;;;;;;;19.38;6.72;;;;;;;;;;2051368;28;20122;-92
2023/03/30 09:37:28;;;;;;;19.77;6.50;;;;;;;;;;2050259;29;20566;-93
2023/03/30 09:38:55;;;;;;;19.25;5.88;;;;;;;;;;2049306;28;20114;-93
2023/03/30 09:40:27;;;;;;;20.63;6.00;;;;;;;;;;2064911;28;20030;-93
2023/03/30 09:42:05;;;;;;;19.58;7.05;;;;;;;;;;2044733;29;20028;-93
2023/03/30 09:43:34;;;;;;;17.00;5.65;;;;;;;;;;2043606;29;20035;-93
2023/03/30 09:44:58;;;;;;;15.23;5.80;;;;;;;;;;2048806;28;20019;-93
2023/03/30 09:46:19;;;;;;;23.63;6.35;;;;;;;;;;2054092;28;20031;-93
2023/03/30 09:47:41;;;;;;;15.82;5.43;;;;;;;;;;2047639;29;20031;-93
2023/03/30 09:49:15;;;;;;;21.67;7.13;;;;;;;;;;2051102;28;20038;-93
2023/03/30 09:50:40;;;;;;;24.77;6.47;;;;;;;;;;2054623;28;20047;-94
2023/03/30 09:52:03;;;;;;;17.15;6.07;;;;;;;;;;2057874;28;20351;-94
2023/03/30 09:53:26;;;;;;;24.77;6.85;;;;;;;;;;2054158;28;20053;-93
2023/03/30 09:54:47;;;;;;;16.90;6.20;;;;;;;;;;2048412;29;20027;-94
2023/03/30 09:56:10;;;;;;;20.42;6.20;;;;;;;;;;2050529;28;20039;-93
2023/03/30 09:57:33;;;;;;;16.15;6.20;;;;;;;;;;2047790;29;20032;-94
2023/03/30 09:58:55;;;;;;;19.85;6.68;;;;;;;;;;2049665;28;20046;-93
2023/03/30 10:00:21;;;;;;;23.52;6.35;;;;;;;;;;2052444;28;20470;-93
2023/03/30 10:01:42;;;;;;;26.13;6.63;;;;;;;;;;2050332;29;20332;-93
2023/03/30 10:03:05;;;;;;;16.95;5.88;;;;;;;;;;2046360;29;20047;-94
2023/03/30 10:04:26;;;;;;;20.75;6.35;;;;;;;;;;2044707;28;20078;-93
2023/03/30 10:06:01;;;;;;;12.57;5.32;;;;;;;;;;2051910;28;20030;-93
2023/03/30 10:07:33;;;;;;;24.05;7.28;;;;;;;;;;2049312;28;20542;-93
2023/03/30 10:08:55;;;;;;;21.00;6.03;;;;;;;;;;2047598;28;20027;-93
2023/03/30 10:10:16;;;;;;;;;;;;;;;;;;2050919;28;20023;-94
2023/03/30 10:11:42;;;;;;;20.55;6.32;;;;;;;;;;2063620;28;20416;-93
2023/03/30 10:13:23;;;;;;;18.52;6.53;;;;;;;;;;2044626;29;20035;-94
2023/03/30 10:14:44;;;;;;;16.08;6.38;;;;;;;;;;2050170;28;20038;-93
2023/03/30 10:16:07;;;;;;;20.45;6.53;;;;;;;;;;2047659;29;20031;-93
2023/03/30 10:17:29;;;;;;;31.52;9.48;;;;;;;;;;2046354;29;20031;-94
2023/03/30 10:18:53;;;;;;;;;;;;;;;;;;2051123;28;20031;-93
2023/03/30 10:20:37;;;;;;;20.15;7.45;;;;;;;;;;2047489;28;20409;-94
2023/03/30 10:22:03;;;;;;;15.95;6.53;;;;;;;;;;2045942;28;20031;-93
2023/03/30 10:23:29;;;;;;;21.05;7.93;;;;;;;;;;2047087;29;20426;-93
2023/03/30 10:24:51;;;;;;;20.88;6.60;;;;;;;;;;2058551;28;20018;-94
2023/03/30 10:26:20;;;;;;;23.92;7.20;;;;;;;;;;2050613;28;20028;-93
2023/03/30 10:27:44;;;;;;;21.75;7.55;;;;;;;;;;2049234;29;20038;-95
2023/03/30 10:29:08;;;;;;;26.98;7.88;;;;;;;;;;2044468;28;20038;-93
2023/03/30 10:30:30;;;;;;;39.22;9.57;;;;;;;;;;2034615;28;20047;-94
2023/03/30 10:32:02;;;;;;;24.70;7.68;;;;;;;;;;2040903;28;20048;-94
2023/03/30 10:33:24;;;;;;;28.30;7.88;;;;;;;;;;2046622;28;20074;-93
2023/03/30 10:34:48;;;;;;;16.10;6.20;;;;;;;;;;2047387;29;20031;-94
2023/03/30 10:36:10;;;;;;;18.90;7.40;;;;;;;;;;2045534;28;20034;-95
2023/03/30 10:37:35;;;;;;;15.75;6.35;;;;;;;;;;2044628;29;20027;-94
2023/03/30 10:39:11;;;;;;;16.67;6.32;;;;;;;;;;2047415;28;20035;-94
2023/03/30 10:40:37;;;;;;;19.42;6.50;;;;;;;;;;2051388;28;20039;-94
2023/03/30 10:42:00;;;;;;;22.23;7.15;;;;;;;;;;2048711;28;20039;-95
2023/03/30 10:43:24;;;;;;;16.58;6.78;;;;;;;;;;2053997;28;20023;-93
2023/03/30 10:44:48;;;;;;;22.17;6.57;;;;;;;;;;2048782;28;20031;-94
2023/03/30 10:46:17;;;;;;;19.25;6.82;;;;;;;;;;2041451;29;20038;-94
2023/03/30 10:47:38;;;;;;;23.27;7.38;;;;;;;;;;2046633;29;20043;-94
2023/03/30 10:49:02;;;;;;;18.25;6.15;;;;;;;;;;2048668;28;20032;-94
2023/03/30 10:50:49;;;;;;;17.52;5.68;;;;;;;;;;2034784;28;20035;-96
2023/03/30 10:52:26;;;;;;;18.90;6.68;;;;;;;;;;2020512;29;20157;-96
2023/03/30 10:54:12;;;;;;;21.60;6.68;;;;;;;;;;2047172;29;20039;-96
2023/03/30 10:55:36;;;;;;;33.55;7.68;;;;;;;;;;2051345;28;20035;-95
2023/03/30 10:57:01;;;;;;;23.30;6.57;;;;;;;;;;2047383;28;20126;-93
2023/03/30 10:58:43;;;;;;;20.38;6.93;;;;;;;;;;2044392;29;20044;-96
2023/03/30 11:02:55;;;;;;;;;;;;;;;;;;;;;
2023/03/30 11:06:52;;;;;;;28.05;7.88;;;;;;;;;;2057803;28;20030;-96
2023/03/30 11:08:57;;;;;;;28.55;7.32;;;;;;;;;;2048613;29;20023;-96
2023/03/30 11:10:37;;;;;;;26.15;7.95;;;;;;;;;;2038549;28;20039;-96
2023/03/30 11:12:10;;;;;;;18.63;6.30;;;;;;;;;;2049108;29;20046;-96
2023/03/30 11:13:51;;;;;;;;;;;;;;;;;;;;;
2023/03/30 11:15:45;;;;;;;;;;;;;;;;;;;;;
2023/03/30 11:17:44;;;;;;;;;;;;;;;;;;;;;
2023/03/30 11:23:45;;;;;;;;;;;;;;;;;;;;;
2023/03/30 11:25:19;;;;;;;19.23;8.73;;;;;;;;;;2025243;29;20029;-96
2023/03/30 11:26:43;;;;;;;23.98;6.78;;;;;;;;;;2033941;29;20070;-96
2023/03/30 11:28:16;;;;;;;23.27;6.45;;;;;;;;;;2038599;29;20024;-96
2023/03/30 11:30:13;;;;;;;;;;;;;;;;;;;;;
2023/03/30 11:34:24;;;;;;;22.65;7.95;;;;;;;;;;2036799;29;20047;-96
2023/03/30 11:36:17;;;;;;;17.05;6.05;;;;;;;;;;2033741;29;20415;-96
2023/03/30 11:38:30;;;;;;;;;;;;;;;;;;;;;
2023/03/30 11:40:44;;;;;;;22.40;6.55;;;;;;;;;;2039804;29;20034;-95
2023/03/30 11:42:18;;;;;;;18.38;5.68;;;;;;;;;;2022964;29;20043;-96
2023/03/30 11:50:30;;;;;;;;;;;;;;;;;;;;;
2023/03/30 11:54:41;;;;;;;18.75;5.78;;;;;;;;;;1997968;29;20034;-96
2023/03/30 12:00:11;;;;;;;35.53;11.75;;;;;;;;;;1964805;29;20045;-96
2023/03/30 12:01:55;;;;;;;;;;;;;;;;;;;;;
2023/03/30 12:03:55;;;;;;;29.67;9.20;;;;;;;;;;2018950;29;20052;-96
2023/03/30 12:07:47;;;;;;;20.75;7.40;;;;;;;;;;2037574;29;20036;-96
2023/03/30 12:09:11;;;;;;;14.77;6.88;;;;;;;;;;2035486;29;20039;-96
2023/03/30 12:10:50;;;;;;;20.95;6.57;;;;;;;;;;2032531;29;20044;-95
2023/03/30 12:12:18;;;;;;;19.15;6.88;;;;;;;;;;2035114;28;20035;-96
2023/03/30 12:14:12;;;;;;;26.00;6.72;;;;;;;;;;2038412;29;20087;-95
2023/03/30 12:16:00;;;;;;;24.05;7.70;;;;;;;;;;2037221;29;20050;-96
2023/03/30 12:19:45;;;;;;;25.88;6.47;;;;;;;;;;2045028;28;20039;-96
2023/03/30 12:21:35;;;;;;;21.77;6.65;;;;;;;;;;2039894;29;20032;-96
2023/03/30 12:23:00;;;;;;;24.48;7.25;;;;;;;;;;2040446;29;20427;-96
2023/03/30 12:24:29;;;;;;;21.98;6.05;;;;;;;;;;2038227;29;20557;-96
2023/03/30 12:26:22;;;;;;;22.15;6.85;;;;;;;;;;2035971;29;20036;-96
2023/03/30 12:28:01;;;;;;;19.67;6.63;;;;;;;;;;2042821;28;20027;-96
2023/03/30 12:32:05;;;;;;;24.52;8.75;;;;;;;;;;2029671;28;20036;-95
2023/03/30 12:34:00;;;;;;;19.17;6.82;;;;;;;;;;2050283;29;20050;-96
2023/03/30 12:35:40;;;;;;;16.63;6.07;;;;;;;;;;2047774;29;20019;-95
2023/03/30 12:37:39;;;;;;;20.13;6.85;;;;;;;;;;2044674;29;20031;-96
2023/03/30 12:39:26;;;;;;;;;;;;;;;;;;;;;
2023/03/30 12:41:02;;;;;;;21.27;6.40;;;;;;;;;;2057423;28;20034;-96
2023/03/30 12:42:45;;;;;;;23.92;8.05;;;;;;;;;;2037554;28;20043;-95
2023/03/30 12:46:09;;;;;;;33.97;10.50;;;;;;;;;;2044651;28;19954;-96
2023/03/30 12:53:31;;;;;;;15.85;5.32;;;;;;;;;;2092713;23;20055;-78
2023/03/30 12:55:04;;;;;;;19.45;5.82;;;;;;;;;;2054020;28;20040;-78
2023/03/30 12:56:27;;;;;;;13.52;4.35;;;;;;;;;;2053576;28;20027;-78
2023/03/30 12:57:57;;;;;;;15.73;3.90;;;;;;;;;;2049912;29;20031;-80
2023/03/30 12:59:28;;;;;;;17.52;4.90;;;;;;;;;;2049024;29;20031;-80
2023/03/30 13:00:57;;;;;;;16.75;4.38;;;;;;;;;;2048732;29;20028;-79
2023/03/30 13:02:33;;;;;;;15.57;5.25;;;;;;;;;;2040100;28;20097;-79
2023/03/30 13:03:59;;;;;;;13.82;4.50;;;;;;;;;;2055320;28;20023;-78
2023/03/30 13:05:25;;;;;;;14.10;4.40;;;;;;;;;;2057370;28;20031;-79
2023/03/30 13:06:55;;;;;;;14.23;4.43;;;;;;;;;;2065896;28;20477;-79
2023/03/30 13:08:16;;;;;;;15.43;4.25;;;;;;;;;;2050111;29;20059;-78
2023/03/30 13:09:53;;;;;;;18.50;6.10;;;;;;;;;;2056509;28;20130;-78
2023/03/30 13:11:18;;;;;;;12.18;4.15;;;;;;;;;;2058354;28;20053;-79
2023/03/30 13:12:39;;;;;;;12.48;4.13;;;;;;;;;;2059000;28;20049;-78
2023/03/30 13:14:13;;;;;;;12.27;4.47;;;;;;;;;;2060090;28;20042;-79
2023/03/30 13:15:49;;;;;;;12.82;4.18;;;;;;;;;;2051000;28;20394;-79
2023/03/30 13:17:10;;;;;;;15.32;4.95;;;;;;;;;;2057992;28;20031;-78
2023/03/30 13:18:32;;;;;;;13.15;3.78;;;;;;;;;;2049843;29;20534;-78
2023/03/30 13:20:10;;;;;;;14.15;4.07;;;;;;;;;;2052001;28;20031;-79
2023/03/30 13:21:45;;;;;;;17.08;5.20;;;;;;;;;;2058405;28;20031;-78
2023/03/30 13:23:08;;;;;;;21.00;5.25;;;;;;;;;;2062589;28;20034;-79
2023/03/30 13:24:29;;;;;;;16.02;5.13;;;;;;;;;;2066024;28;20070;-78
2023/03/30 13:26:19;;;;;;;16.60;4.97;;;;;;;;;;2059788;28;20026;-79
2023/03/30 13:27:41;;;;;;;14.88;4.47;;;;;;;;;;2048402;29;20434;-79
2023/03/30 13:29:06;;;;;;;13.15;4.47;;;;;;;;;;2048932;29;20038;-79
2023/03/30 13:30:28;;;;;;;15.15;4.72;;;;;;;;;;2057030;28;20034;-78
2023/03/30 13:31:55;;;;;;;16.38;4.75;;;;;;;;;;2052787;28;20035;-79
2023/03/30 13:33:21;;;;;;;15.98;4.97;;;;;;;;;;2051963;28;20043;-70
2023/03/30 13:34:41;;;;;;;24.90;5.32;;;;;;;;;;2050148;28;20047;-70
2023/03/30 13:38:20;;;;;;;16.60;5.18;;;;;;;;;;2063590;28;20089;-71
2023/03/30 13:39:46;;;;;;;15.65;5.18;;;;;;;;;;2063128;28;20489;-71
2023/03/30 13:41:49;;;;;;;16.15;4.70;;;;;;;;;;2059129;28;20043;-69
2023/03/30 13:43:10;;;;;;;12.88;4.13;;;;;;;;;;2033632;29;20044;-71
2023/03/30 13:44:38;;;;;;;13.40;4.38;;;;;;;;;;2036919;29;20103;-71
2023/03/30 13:46:17;;;;;;;14.85;4.75;;;;;;;;;;2033834;29;20480;-73
2023/03/30 13:47:38;;;;;;;14.85;3.88;;;;;;;;;;2024851;29;20445;-73
2023/03/30 13:49:05;;;;;;;11.88;3.83;;;;;;;;;;2056171;28;20042;-73
2023/03/30 13:50:33;;;;;;;19.73;5.20;;;;;;;;;;2053709;28;20035;-73
2023/03/30 13:51:57;;;;;;;14.88;4.60;;;;;;;;;;2060749;28;20042;-71
2023/03/30 13:53:18;;;;;;;13.82;4.38;;;;;;;;;;2060760;28;20039;-71
2023/03/30 13:54:40;;;;;;;13.73;3.97;;;;;;;;;;2057519;28;20062;-69
2023/03/30 13:56:11;;;;;;;13.07;4.25;;;;;;;;;;2049206;28;20042;-71
2023/03/30 13:57:37;;;;;;;14.43;4.57;;;;;;;;;;2047782;29;20483;-70
2023/03/30 13:59:04;;;;;;;17.48;4.43;;;;;;;;;;2062668;28;20077;-72
2023/03/30 14:01:05;;;;;;;15.52;4.10;;;;;;;;;;2058039;28;20417;-73
2023/03/30 14:02:29;;;;;;;21.48;5.40;;;;;;;;;;2034527;28;20037;-71
2023/03/30 14:03:55;;;;;;;16.63;3.97;;;;;;;;;;2031538;29;20028;-69
2023/03/30 14:05:48;;;;;;;18.90;4.15;;;;;;;;;;2038962;29;20019;-71
2023/03/30 14:07:16;;;;;;;15.18;3.92;;;;;;;;;;2039286;29;20024;-71
2023/03/30 14:08:38;;;;;;;23.15;5.53;;;;;;;;;;2052678;28;20691;-71
2023/03/30 14:10:13;;;;;;;19.10;4.70;;;;;;;;;;2059761;28;20045;-73
2023/03/30 14:15:36;;;;;;;30.55;8.18;;;;;;;;;;2057428;28;20022;-72
2023/03/30 14:16:58;;;;;;;21.25;6.57;;;;;;;;;;2048357;28;20438;-72
2023/03/30 14:18:23;;;;;;;25.30;6.82;;;;;;;;;;2047340;28;20043;-71
2023/03/30 14:20:06;;;;;;;15.80;5.05;;;;;;;;;;2060696;28;20035;-71
2023/03/30 14:21:27;;;;;;;18.60;5.35;;;;;;;;;;2055993;28;20015;-74
2023/03/30 14:22:49;;;;;;;13.80;4.72;;;;;;;;;;2056249;28;20736;-75
2023/03/30 14:24:12;;;;;;;19.83;5.13;;;;;;;;;;2059696;28;20506;-74
2023/03/30 14:25:39;;;;;;;22.42;5.80;;;;;;;;;;2046596;28;20032;-74
2023/03/30 14:27:04;;;;;;;26.92;6.38;;;;;;;;;;2049655;28;20023;-76
2023/03/30 14:28:26;;;;;;;23.27;7.55;;;;;;;;;;2052222;28;20409;-75
2023/03/30 14:29:47;;;;;;;;;;;;;;;;;;2050492;28;20133;-75
2023/03/30 14:31:12;;;;;;;17.88;5.57;;;;;;;;;;2045327;28;19926;-74
2023/03/30 14:32:33;;;;;;;27.13;7.15;;;;;;;;;;2045905;28;20107;-74
2023/03/30 14:33:54;;;;;;;19.92;5.78;;;;;;;;;;2059546;28;20035;-74
2023/03/30 14:35:17;;;;;;;16.33;4.87;;;;;;;;;;2054695;28;20062;-76
2023/03/30 14:36:38;;;;;;;15.00;4.82;;;;;;;;;;2060439;28;20453;-76
2023/03/30 14:38:00;;;;;;;17.25;5.68;;;;;;;;;;2058231;28;20514;-76
2023/03/30 14:39:22;;;;;;;;;;;;;;;;;;2056295;28;20084;-77
2023/03/30 14:40:42;;;;;;;16.75;5.53;;;;;;;;;;2053325;28;19914;-76
2023/03/30 14:42:15;;;;;;;18.67;4.95;;;;;;;;;;2056617;28;20046;-76
2023/03/30 14:43:39;;;;;;;17.10;4.30;;;;;;;;;;2052459;28;20034;-77
2023/03/30 14:45:00;;;;;;;19.80;5.70;;;;;;;;;;2052846;28;20473;-77
2023/03/30 14:46:27;;;;;;;24.30;6.90;;;;;;;;;;2049589;28;20038;-77
2023/03/30 14:47:48;;;;;;;28.10;7.38;;;;;;;;;;2058539;28;20042;-76
2023/03/30 14:49:17;;;;;;;16.70;5.38;;;;;;;;;;2052773;28;20082;-76
2023/03/30 14:50:38;;;;;;;19.85;6.25;;;;;;;;;;2055649;28;20340;-76
2023/03/30 14:52:01;;;;;;;24.70;6.50;;;;;;;;;;2049025;28;20039;-77
2023/03/30 14:53:25;;;;;;;17.08;5.60;;;;;;;;;;2047396;28;20051;-76
2023/03/30 14:54:53;;;;;;;16.17;4.85;;;;;;;;;;2052140;28;20398;-76
2023/03/30 14:56:16;;;;;;;22.95;6.10;;;;;;;;;;2051385;28;20054;-77
2023/03/30 14:57:38;;;;;;;17.13;5.50;;;;;;;;;;2049030;28;20035;-77
2023/03/30 14:59:01;;;;;;;;;;;;;;;;;;2046322;28;20499;-77
2023/03/30 15:00:23;;;;;;;18.02;5.25;;;;;;;;;;2050310;28;19969;-76
2023/03/30 15:01:44;;;;;;;15.32;5.43;;;;;;;;;;2047521;28;20404;-77
2023/03/30 15:03:05;;;;;;;18.95;5.85;;;;;;;;;;2051937;28;20082;-71
2023/03/30 15:04:31;;;;;;;14.35;5.47;;;;;;;;;;2050763;28;20038;-72
2023/03/30 15:06:02;;;;;;;18.65;5.65;;;;;;;;;;2059148;28;20034;-72
2023/03/30 15:07:27;;;;;;;22.13;6.15;;;;;;;;;;2059033;28;20046;-71
2023/03/30 15:09:30;;;;;;;14.73;5.50;;;;;;;;;;2062742;28;20039;-79
2023/03/30 15:10:55;;;;;;;18.33;6.68;;;;;;;;;;2063213;28;20394;-74
2023/03/30 15:14:31;;;;;;;23.92;6.28;;;;;;;;;;2063315;28;20031;-79
2023/03/30 15:19:50;;;;;;;13.02;5.07;;;;;;;;;;2063995;28;20026;-74
2023/03/30 15:21:12;;;;;;;11.73;5.18;;;;;;;;;;2049205;28;20031;-73
2023/03/30 15:22:35;;;;;;;14.10;5.55;;;;;;;;;;2058407;28;21133;-73
2023/03/30 15:23:57;;;;;;;17.60;5.93;;;;;;;;;;2063375;28;20030;-74
2023/03/30 15:25:22;;;;;;;23.42;6.18;;;;;;;;;;2063594;28;20038;-73
2023/03/30 15:26:47;;;;;;;14.75;5.38;;;;;;;;;;2058911;28;20030;-79
2023/03/30 15:28:37;;;;;;;18.25;5.93;;;;;;;;;;2057966;28;20026;-74
2023/03/30 15:38:20;;;;;;;16.00;5.22;;;;;;;;;;2061047;28;20030;-73
2023/03/30 15:39:57;;;;;;;20.60;6.68;;;;;;;;;;2051087;28;20039;-73
2023/03/30 15:41:23;;;;;;;18.08;6.03;;;;;;;;;;2049889;28;20714;-73
2023/03/30 15:42:46;;;;;;;18.10;5.15;;;;;;;;;;2058060;28;20022;-71
2023/03/30 15:44:11;;;;;;;17.92;6.30;;;;;;;;;;2049463;28;20035;-71
2023/03/30 15:48:21;;;;;;;;;;;;;;;;;;;;;
2023/03/30 15:50:12;;;;;;;17.02;5.68;;;;;;;;;;2044950;28;20047;-76
2023/03/30 15:51:50;;;;;;;17.30;5.82;;;;;;;;;;2050818;28;20098;-77
2023/03/30 15:55:28;;;;;;;22.50;7.32;;;;;;;;;;2051992;28;20038;-75
2023/03/30 15:57:00;;;;;;;19.38;5.68;;;;;;;;;;2058422;28;20043;-76
2023/03/30 15:58:24;;;;;;;14.00;5.07;;;;;;;;;;2046242;28;20111;-75
2023/03/30 15:59:49;;;;;;;23.02;6.15;;;;;;;;;;2046692;28;20143;-75
2023/03/30 16:01:13;;;;;;;14.10;5.13;;;;;;;;;;2045171;28;20503;-74
2023/03/30 16:02:38;;;;;;;13.35;4.35;;;;;;;;;;2050418;28;20042;-75
2023/03/30 16:04:00;;;;;;;12.73;4.75;;;;;;;;;;2048614;28;20042;-75
2023/03/30 16:05:21;;;;;;;21.80;6.32;;;;;;;;;;2046658;28;20079;-75
2023/03/30 16:06:43;;;;;;;16.20;5.10;;;;;;;;;;2046604;28;20031;-75
2023/03/30 16:08:04;;;;;;;11.25;4.65;;;;;;;;;;2049637;28;20415;-76
2023/03/30 16:09:26;;;;;;;15.25;4.55;;;;;;;;;;2053972;28;20031;-74
2023/03/30 16:10:47;;;;;;;15.88;5.00;;;;;;;;;;2048825;28;20722;-76
2023/03/30 16:12:10;;;;;;;15.40;5.45;;;;;;;;;;2047982;28;20035;-76
2023/03/30 16:13:31;;;;;;;34.30;9.48;;;;;;;;;;2049913;28;20081;-76
2023/03/30 16:14:54;;;;;;;17.35;5.50;;;;;;;;;;2043368;28;20035;-75
2023/03/30 16:16:17;;;;;;;14.32;4.90;;;;;;;;;;2056189;28;20035;-75
2023/03/30 16:17:38;;;;;;;19.58;6.25;;;;;;;;;;2048580;28;20376;-75
2023/03/30 16:18:59;;;;;;;20.17;5.28;;;;;;;;;;2047543;28;20116;-75
2023/03/30 16:20:22;;;;;;;16.65;4.78;;;;;;;;;;2054360;28;20081;-76
2023/03/30 16:21:43;;;;;;;13.20;4.45;;;;;;;;;;2048520;28;20549;-75
2023/03/30 16:23:04;;;;;;;13.65;4.75;;;;;;;;;;2053551;28;20429;-75
2023/03/30 16:24:25;;;;;;;10.85;4.18;;;;;;;;;;2052448;28;20044;-75
2023/03/30 16:25:46;;;;;;;12.45;4.93;;;;;;;;;;2055818;28;20054;-76
2023/03/30 16:27:09;;;;;;;22.35;5.28;;;;;;;;;;2059106;28;20093;-76
2023/03/30 16:28:38;;;;;;;15.55;5.07;;;;;;;;;;2060868;28;20062;-75
2023/03/30 16:29:59;;;;;;;20.65;5.30;;;;;;;;;;2049210;28;20083;-76
2023/03/30 16:31:21;;;;;;;22.48;6.20;;;;;;;;;;2047689;28;20027;-76
2023/03/30 16:32:45;;;;;;;19.48;5.35;;;;;;;;;;2052019;28;20030;-75
2023/03/30 16:34:08;;;;;;;16.17;5.28;;;;;;;;;;2035761;28;20039;-76
2023/03/30 16:35:29;;;;;;;17.92;5.70;;;;;;;;;;2054665;28;20073;-76